sensor_id;sensor_type;location;lat;lon;timestamp;pressure;altitude;pressure_sealevel;temperature;humidity
13952;BME280;39535;52.192;9.886;2023-01-29T00:01:40;101965.19;;;-0.19;85.89
13952;BME280;39535;52.192;9.886;2023-01-29T00:04:07;101945.03;;;-0.11;85.60
13952;BME280;39535;52.192;9.886;2023-01-29T00:06:33;101938.50;;;-0.05;85.74
13952;BME280;39535;52.192;9.886;2023-01-29T00:09:01;101963.00;;;-0.11;84.83
13952;BME280;39535;52.192;9.886;2023-01-29T00:11:27;101955.22;;;0.05;84.72
13952;BME280;39535;52.192;9.886;2023-01-29T00:13:55;101943.34;;;0.07;85.53
13952;BME280;39535;52.192;9.886;2023-01-29T00:16:21;101952.16;;;0.12;84.18
13952;BME280;39535;52.192;9.886;2023-01-29T00:18:48;101972.53;;;0.09;83.94
13952;BME280;39535;52.192;9.886;2023-01-29T00:21:16;101984.59;;;0.10;83.76
13952;BME280;39535;52.192;9.886;2023-01-29T00:23:43;101999.53;;;0.01;83.11
13952;BME280;39535;52.192;9.886;2023-01-29T00:26:11;102006.50;;;0.04;83.88
13952;BME280;39535;52.192;9.886;2023-01-29T00:28:38;102000.38;;;-0.16;83.61
13952;BME280;39535;52.192;9.886;2023-01-29T00:31:08;101985.06;;;-0.15;83.93
13952;BME280;39535;52.192;9.886;2023-01-29T00:33:34;101999.66;;;-0.14;84.17
13952;BME280;39535;52.192;9.886;2023-01-29T00:36:02;101997.78;;;0.00;83.61
13952;BME280;39535;52.192;9.886;2023-01-29T00:38:28;102009.13;;;0.05;83.65
13952;BME280;39535;52.192;9.886;2023-01-29T00:40:55;102012.78;;;-0.08;83.57
13952;BME280;39535;52.192;9.886;2023-01-29T00:43:40;102011.97;;;-0.07;83.94
13952;BME280;39535;52.192;9.886;2023-01-29T00:46:24;102011.06;;;-0.25;83.84
13952;BME280;39535;52.192;9.886;2023-01-29T00:48:50;101986.22;;;-0.08;84.53
13952;BME280;39535;52.192;9.886;2023-01-29T00:51:17;101983.53;;;-0.11;84.50
13952;BME280;39535;52.192;9.886;2023-01-29T00:53:43;101972.53;;;-0.09;84.69
13952;BME280;39535;52.192;9.886;2023-01-29T00:56:09;101965.66;;;-0.10;84.60
13952;BME280;39535;52.192;9.886;2023-01-29T00:58:35;101946.75;;;0.06;85.71
13952;BME280;39535;52.192;9.886;2023-01-29T01:01:03;101948.63;;;0.10;84.72
13952;BME280;39535;52.192;9.886;2023-01-29T01:03:30;101950.91;;;0.22;84.51
13952;BME280;39535;52.192;9.886;2023-01-29T01:06:03;101974.59;;;-0.02;84.27
13952;BME280;39535;52.192;9.886;2023-01-29T01:08:29;101951.03;;;0.07;85.13
13952;BME280;39535;52.192;9.886;2023-01-29T01:11:13;101937.84;;;0.17;85.88
13952;BME280;39535;52.192;9.886;2023-01-29T01:13:39;101943.91;;;0.19;84.93
13952;BME280;39535;52.192;9.886;2023-01-29T01:16:09;101953.16;;;-0.02;85.29
13952;BME280;39535;52.192;9.886;2023-01-29T01:18:36;101948.47;;;-0.11;85.73
13952;BME280;39535;52.192;9.886;2023-01-29T01:21:02;101944.47;;;-0.22;85.70
13952;BME280;39535;52.192;9.886;2023-01-29T01:23:29;101940.16;;;-0.41;85.90
13952;BME280;39535;52.192;9.886;2023-01-29T01:25:55;101923.06;;;-0.41;85.86
13952;BME280;39535;52.192;9.886;2023-01-29T01:28:22;101908.97;;;-0.49;87.11
13952;BME280;39535;52.192;9.886;2023-01-29T01:30:48;101876.03;;;-0.23;87.06
13952;BME280;39535;52.192;9.886;2023-01-29T01:33:16;101873.31;;;-0.26;86.52
13952;BME280;39535;52.192;9.886;2023-01-29T01:35:42;101875.56;;;-0.14;87.28
13952;BME280;39535;52.192;9.886;2023-01-29T01:38:08;101850.44;;;-0.04;87.34
13952;BME280;39535;52.192;9.886;2023-01-29T01:40:36;101841.25;;;0.02;87.66
13952;BME280;39535;52.192;9.886;2023-01-29T01:43:02;101837.81;;;0.01;86.94
13952;BME280;39535;52.192;9.886;2023-01-29T01:45:30;101842.88;;;-0.01;85.92
13952;BME280;39535;52.192;9.886;2023-01-29T01:48:01;101878.97;;;-0.33;85.12
13952;BME280;39535;52.192;9.886;2023-01-29T01:50:34;101874.53;;;-0.36;85.50
13952;BME280;39535;52.192;9.886;2023-01-29T01:53:05;101875.34;;;-0.37;85.83
13952;BME280;39535;52.192;9.886;2023-01-29T01:55:34;101874.31;;;-0.41;86.17
13952;BME280;39535;52.192;9.886;2023-01-29T01:58:06;101858.56;;;-0.30;86.75
13952;BME280;39535;52.192;9.886;2023-01-29T02:00:34;101854.63;;;-0.24;86.50
13952;BME280;39535;52.192;9.886;2023-01-29T02:03:01;101859.75;;;-0.24;86.81
13952;BME280;39535;52.192;9.886;2023-01-29T02:05:48;101854.09;;;-0.16;85.93
13952;BME280;39535;52.192;9.886;2023-01-29T02:08:37;101882.13;;;-0.21;84.79
13952;BME280;39535;52.192;9.886;2023-01-29T02:11:24;101890.84;;;-0.17;85.46
13952;BME280;39535;52.192;9.886;2023-01-29T02:13:50;101898.53;;;-0.17;84.99
13952;BME280;39535;52.192;9.886;2023-01-29T02:16:18;101905.94;;;-0.06;84.95
13952;BME280;39535;52.192;9.886;2023-01-29T02:18:44;101919.22;;;0.04;84.91
13952;BME280;39535;52.192;9.886;2023-01-29T02:21:30;101954.84;;;-0.03;83.38
13952;BME280;39535;52.192;9.886;2023-01-29T02:24:17;101964.91;;;-0.07;83.59
13952;BME280;39535;52.192;9.886;2023-01-29T02:26:54;101977.28;;;0.02;83.57
13952;BME280;39535;52.192;9.886;2023-01-29T02:29:28;101991.84;;;-0.33;83.33
13952;BME280;39535;52.192;9.886;2023-01-29T02:32:08;101980.69;;;-0.34;84.11
13952;BME280;39535;52.192;9.886;2023-01-29T02:34:47;101966.13;;;-0.17;84.61
13952;BME280;39535;52.192;9.886;2023-01-29T02:37:37;101970.78;;;-0.10;84.04
13952;BME280;39535;52.192;9.886;2023-01-29T02:40:11;101989.06;;;-0.20;83.64
13952;BME280;39535;52.192;9.886;2023-01-29T02:42:45;102001.63;;;-0.43;84.11
13952;BME280;39535;52.192;9.886;2023-01-29T02:45:18;101997.22;;;-0.45;83.95
13952;BME280;39535;52.192;9.886;2023-01-29T02:47:55;101984.38;;;-0.29;84.39
13952;BME280;39535;52.192;9.886;2023-01-29T02:50:27;101982.28;;;-0.36;84.51
13952;BME280;39535;52.192;9.886;2023-01-29T02:53:00;101964.22;;;-0.21;85.15
13952;BME280;39535;52.192;9.886;2023-01-29T02:55:33;101959.03;;;-0.05;84.97
13952;BME280;39535;52.192;9.886;2023-01-29T02:58:06;101984.13;;;0.01;83.77
13952;BME280;39535;52.192;9.886;2023-01-29T03:00:38;101989.63;;;0.09;83.16
13952;BME280;39535;52.192;9.886;2023-01-29T03:03:11;101999.22;;;-0.05;83.78
13952;BME280;39535;52.192;9.886;2023-01-29T03:05:44;102000.50;;;-0.31;83.95
13952;BME280;39535;52.192;9.886;2023-01-29T03:08:17;101987.19;;;-0.41;84.61
13952;BME280;39535;52.192;9.886;2023-01-29T03:10:50;101963.78;;;-0.12;84.73
13952;BME280;39535;52.192;9.886;2023-01-29T03:13:22;101978.06;;;-0.35;84.50
13952;BME280;39535;52.192;9.886;2023-01-29T03:16:00;101968.22;;;-0.10;84.96
13952;BME280;39535;52.192;9.886;2023-01-29T03:18:31;101958.78;;;-0.27;84.88
13952;BME280;39535;52.192;9.886;2023-01-29T03:21:02;101940.44;;;-0.35;85.26
13952;BME280;39535;52.192;9.886;2023-01-29T03:23:51;101934.84;;;-0.10;85.54
13952;BME280;39535;52.192;9.886;2023-01-29T03:26:37;101940.03;;;-0.08;84.61
13952;BME280;39535;52.192;9.886;2023-01-29T03:29:21;101940.66;;;0.04;83.65
13952;BME280;39535;52.192;9.886;2023-01-29T03:32:07;101961.38;;;-0.09;83.39
13952;BME280;39535;52.192;9.886;2023-01-29T03:34:40;101963.88;;;0.07;84.06
13952;BME280;39535;52.192;9.886;2023-01-29T03:37:10;101960.22;;;0.20;83.67
13952;BME280;39535;52.192;9.886;2023-01-29T03:39:40;101959.03;;;0.31;83.91
13952;BME280;39535;52.192;9.886;2023-01-29T03:42:13;101983.47;;;0.23;83.51
13952;BME280;39535;52.192;9.886;2023-01-29T03:44:52;101985.28;;;0.26;83.19
13952;BME280;39535;52.192;9.886;2023-01-29T03:47:23;101979.06;;;0.38;83.98
13952;BME280;39535;52.192;9.886;2023-01-29T03:49:56;101966.81;;;0.51;84.11
13952;BME280;39535;52.192;9.886;2023-01-29T03:52:27;101962.03;;;0.58;83.49
13952;BME280;39535;52.192;9.886;2023-01-29T03:55:02;101962.09;;;0.60;83.54
13952;BME280;39535;52.192;9.886;2023-01-29T03:57:37;101955.47;;;0.65;83.37
13952;BME280;39535;52.192;9.886;2023-01-29T04:00:10;101945.94;;;0.63;84.41
13952;BME280;39535;52.192;9.886;2023-01-29T04:02:46;101941.75;;;0.65;84.61
13952;BME280;39535;52.192;9.886;2023-01-29T04:05:17;101942.41;;;0.61;84.02
13952;BME280;39535;52.192;9.886;2023-01-29T04:07:45;101953.13;;;0.70;82.83
13952;BME280;39535;52.192;9.886;2023-01-29T04:10:15;101950.84;;;0.76;83.41
13952;BME280;39535;52.192;9.886;2023-01-29T04:12:47;101958.38;;;0.73;83.38
13952;BME280;39535;52.192;9.886;2023-01-29T04:15:16;101964.00;;;0.64;81.87
13952;BME280;39535;52.192;9.886;2023-01-29T04:17:49;101967.31;;;0.62;82.55
13952;BME280;39535;52.192;9.886;2023-01-29T04:20:17;101964.78;;;0.63;82.63
13952;BME280;39535;52.192;9.886;2023-01-29T04:22:45;101984.22;;;0.38;81.74
13952;BME280;39535;52.192;9.886;2023-01-29T04:25:14;101989.16;;;0.34;81.25
13952;BME280;39535;52.192;9.886;2023-01-29T04:27:44;101978.78;;;0.32;82.21
13952;BME280;39535;52.192;9.886;2023-01-29T04:30:22;101979.94;;;0.39;81.78
13952;BME280;39535;52.192;9.886;2023-01-29T04:33:02;101994.41;;;0.37;80.96
13952;BME280;39535;52.192;9.886;2023-01-29T04:35:43;101996.00;;;0.53;81.44
13952;BME280;39535;52.192;9.886;2023-01-29T04:38:23;101997.44;;;0.28;80.81
13952;BME280;39535;52.192;9.886;2023-01-29T04:40:59;101987.81;;;0.42;81.95
13952;BME280;39535;52.192;9.886;2023-01-29T04:43:33;101992.50;;;0.15;80.80
13952;BME280;39535;52.192;9.886;2023-01-29T04:46:09;101980.69;;;0.18;80.87
13952;BME280;39535;52.192;9.886;2023-01-29T04:48:45;101953.19;;;0.34;82.04
13952;BME280;39535;52.192;9.886;2023-01-29T04:51:20;101938.50;;;0.31;81.68
13952;BME280;39535;52.192;9.886;2023-01-29T04:53:53;101926.16;;;0.42;82.48
13952;BME280;39535;52.192;9.886;2023-01-29T04:56:28;101929.88;;;0.49;81.81
13952;BME280;39535;52.192;9.886;2023-01-29T04:59:02;101945.19;;;0.46;80.76
13952;BME280;39535;52.192;9.886;2023-01-29T05:01:31;101965.38;;;0.38;80.53
13952;BME280;39535;52.192;9.886;2023-01-29T05:04:03;101975.91;;;0.44;80.87
13952;BME280;39535;52.192;9.886;2023-01-29T05:06:31;101976.13;;;0.49;81.54
13952;BME280;39535;52.192;9.886;2023-01-29T05:08:58;101975.34;;;0.32;80.53
13952;BME280;39535;52.192;9.886;2023-01-29T05:11:25;101963.78;;;0.42;81.08
13952;BME280;39535;52.192;9.886;2023-01-29T05:13:52;101948.63;;;0.46;81.61
13952;BME280;39535;52.192;9.886;2023-01-29T05:16:21;101946.75;;;0.44;80.51
13952;BME280;39535;52.192;9.886;2023-01-29T05:18:49;101962.78;;;0.38;81.05
13952;BME280;39535;52.192;9.886;2023-01-29T05:21:17;101970.41;;;0.36;81.00
13952;BME280;39535;52.192;9.886;2023-01-29T05:23:44;101963.50;;;0.35;81.01
13952;BME280;39535;52.192;9.886;2023-01-29T05:26:23;101967.78;;;-0.01;81.34
13952;BME280;39535;52.192;9.886;2023-01-29T05:29:06;101950.94;;;-0.12;82.21
13952;BME280;39535;52.192;9.886;2023-01-29T05:31:33;101941.88;;;0.12;82.51
13952;BME280;39535;52.192;9.886;2023-01-29T05:33:59;101910.13;;;0.28;82.95
13952;BME280;39535;52.192;9.886;2023-01-29T05:36:27;101913.25;;;0.41;82.72
13952;BME280;39535;52.192;9.886;2023-01-29T05:38:53;101911.44;;;0.57;82.64
13952;BME280;39535;52.192;9.886;2023-01-29T05:41:19;101916.81;;;0.62;82.02
13952;BME280;39535;52.192;9.886;2023-01-29T05:43:46;101938.59;;;0.70;80.89
13952;BME280;39535;52.192;9.886;2023-01-29T05:46:12;101949.81;;;0.72;80.52
13952;BME280;39535;52.192;9.886;2023-01-29T05:48:38;101963.34;;;0.68;81.09
13952;BME280;39535;52.192;9.886;2023-01-29T05:51:05;101979.84;;;0.55;80.59
13952;BME280;39535;52.192;9.886;2023-01-29T05:53:32;101971.34;;;0.56;81.11
13952;BME280;39535;52.192;9.886;2023-01-29T05:56:00;101973.59;;;0.68;80.95
13952;BME280;39535;52.192;9.886;2023-01-29T05:58:26;101991.41;;;0.46;80.65
13952;BME280;39535;52.192;9.886;2023-01-29T06:00:53;101988.97;;;0.49;80.37
13952;BME280;39535;52.192;9.886;2023-01-29T06:03:19;101985.63;;;0.32;81.38
13952;BME280;39535;52.192;9.886;2023-01-29T06:05:45;101982.03;;;0.28;81.67
13952;BME280;39535;52.192;9.886;2023-01-29T06:08:11;101960.59;;;0.46;81.89
13952;BME280;39535;52.192;9.886;2023-01-29T06:10:39;101976.06;;;0.29;81.52
13952;BME280;39535;52.192;9.886;2023-01-29T06:13:05;101975.09;;;0.45;81.69
13952;BME280;39535;52.192;9.886;2023-01-29T06:15:32;101985.44;;;0.47;81.00
13952;BME280;39535;52.192;9.886;2023-01-29T06:17:58;101984.59;;;0.28;81.12
13952;BME280;39535;52.192;9.886;2023-01-29T06:20:25;101978.78;;;0.32;82.05
13952;BME280;39535;52.192;9.886;2023-01-29T06:22:51;101953.00;;;0.49;82.19
13952;BME280;39535;52.192;9.886;2023-01-29T06:25:18;101938.09;;;0.59;82.26
13952;BME280;39535;52.192;9.886;2023-01-29T06:27:49;101956.22;;;0.63;82.45
13952;BME280;39535;52.192;9.886;2023-01-29T06:30:15;101954.06;;;0.72;82.10
13952;BME280;39535;52.192;9.886;2023-01-29T06:32:42;101950.13;;;0.61;81.64
13952;BME280;39535;52.192;9.886;2023-01-29T06:35:08;101957.19;;;0.47;81.15
13952;BME280;39535;52.192;9.886;2023-01-29T06:37:35;101969.72;;;0.58;80.54
13952;BME280;39535;52.192;9.886;2023-01-29T06:40:01;101973.34;;;0.62;80.43
13952;BME280;39535;52.192;9.886;2023-01-29T06:42:27;101988.50;;;0.57;79.59
13952;BME280;39535;52.192;9.886;2023-01-29T06:44:55;102004.66;;;0.55;79.34
13952;BME280;39535;52.192;9.886;2023-01-29T06:47:22;102011.50;;;0.54;79.96
13952;BME280;39535;52.192;9.886;2023-01-29T06:49:49;101989.09;;;0.70;80.95
13952;BME280;39535;52.192;9.886;2023-01-29T06:52:16;101991.44;;;0.65;80.17
13952;BME280;39535;52.192;9.886;2023-01-29T06:54:42;102012.44;;;0.74;79.83
13952;BME280;39535;52.192;9.886;2023-01-29T06:57:08;102024.72;;;0.44;79.71
13952;BME280;39535;52.192;9.886;2023-01-29T06:59:35;102014.59;;;0.47;80.55
13952;BME280;39535;52.192;9.886;2023-01-29T07:02:03;101993.22;;;0.66;80.44
13952;BME280;39535;52.192;9.886;2023-01-29T07:04:29;102007.03;;;0.68;80.32
13952;BME280;39535;52.192;9.886;2023-01-29T07:06:57;102016.84;;;0.59;80.09
13952;BME280;39535;52.192;9.886;2023-01-29T07:09:24;102046.81;;;0.76;79.72
13952;BME280;39535;52.192;9.886;2023-01-29T07:11:50;102051.00;;;0.74;80.02
13952;BME280;39535;52.192;9.886;2023-01-29T07:14:17;102041.75;;;0.60;79.63
13952;BME280;39535;52.192;9.886;2023-01-29T07:16:43;102052.16;;;0.45;79.91
13952;BME280;39535;52.192;9.886;2023-01-29T07:19:10;102068.91;;;0.37;80.25
13952;BME280;39535;52.192;9.886;2023-01-29T07:21:37;102067.63;;;0.29;79.94
13952;BME280;39535;52.192;9.886;2023-01-29T07:24:03;102044.69;;;0.32;80.48
13952;BME280;39535;52.192;9.886;2023-01-29T07:26:30;102040.19;;;0.28;81.53
13952;BME280;39535;52.192;9.886;2023-01-29T07:28:56;102028.38;;;0.31;80.98
13952;BME280;39535;52.192;9.886;2023-01-29T07:31:22;102012.28;;;0.17;80.99
13952;BME280;39535;52.192;9.886;2023-01-29T07:33:49;101997.25;;;0.25;81.88
13952;BME280;39535;52.192;9.886;2023-01-29T07:36:16;101968.72;;;0.37;82.46
13952;BME280;39535;52.192;9.886;2023-01-29T07:38:43;101952.88;;;0.46;81.76
13952;BME280;39535;52.192;9.886;2023-01-29T07:41:10;101955.66;;;0.50;81.93
13952;BME280;39535;52.192;9.886;2023-01-29T07:43:36;101948.34;;;0.40;82.21
13952;BME280;39535;52.192;9.886;2023-01-29T07:46:03;101937.78;;;0.53;81.79
13952;BME280;39535;52.192;9.886;2023-01-29T07:48:30;101921.13;;;0.63;81.64
13952;BME280;39535;52.192;9.886;2023-01-29T07:50:56;101945.59;;;0.37;81.47
13952;BME280;39535;52.192;9.886;2023-01-29T07:53:25;101946.75;;;0.44;81.88
13952;BME280;39535;52.192;9.886;2023-01-29T07:55:51;101943.56;;;0.48;81.89
13952;BME280;39535;52.192;9.886;2023-01-29T07:58:18;101949.03;;;0.55;81.36
13952;BME280;39535;52.192;9.886;2023-01-29T08:00:44;101935.69;;;0.45;81.46
13952;BME280;39535;52.192;9.886;2023-01-29T08:03:12;101937.59;;;0.49;81.47
13952;BME280;39535;52.192;9.886;2023-01-29T08:05:40;101928.63;;;0.58;81.77
13952;BME280;39535;52.192;9.886;2023-01-29T08:08:06;101923.66;;;0.44;80.89
13952;BME280;39535;52.192;9.886;2023-01-29T08:10:35;101895.22;;;0.58;81.11
13952;BME280;39535;52.192;9.886;2023-01-29T08:13:02;101879.06;;;0.61;81.60
13952;BME280;39535;52.192;9.886;2023-01-29T08:15:29;101886.16;;;0.67;81.38
13952;BME280;39535;52.192;9.886;2023-01-29T08:17:55;101883.94;;;0.74;82.07
13952;BME280;39535;52.192;9.886;2023-01-29T08:20:22;101889.84;;;0.72;81.24
13952;BME280;39535;52.192;9.886;2023-01-29T08:22:48;101898.81;;;0.62;81.70
13952;BME280;39535;52.192;9.886;2023-01-29T08:25:15;101887.19;;;0.70;82.15
13952;BME280;39535;52.192;9.886;2023-01-29T08:27:43;101890.22;;;0.81;82.23
13952;BME280;39535;52.192;9.886;2023-01-29T08:30:10;101895.91;;;0.74;81.56
13952;BME280;39535;52.192;9.886;2023-01-29T08:32:37;101885.41;;;0.89;81.96
13952;BME280;39535;52.192;9.886;2023-01-29T08:35:03;101892.00;;;0.82;81.66
13952;BME280;39535;52.192;9.886;2023-01-29T08:37:30;101886.78;;;0.81;82.88
13952;BME280;39535;52.192;9.886;2023-01-29T08:39:56;101879.56;;;0.72;82.90
13952;BME280;39535;52.192;9.886;2023-01-29T08:42:22;101864.25;;;0.75;82.57
13952;BME280;39535;52.192;9.886;2023-01-29T08:44:50;101856.84;;;0.62;83.11
13952;BME280;39535;52.192;9.886;2023-01-29T08:47:17;101854.47;;;0.66;82.90
13952;BME280;39535;52.192;9.886;2023-01-29T08:49:43;101849.41;;;0.68;82.51
13952;BME280;39535;52.192;9.886;2023-01-29T08:52:09;101851.13;;;0.69;82.55
13952;BME280;39535;52.192;9.886;2023-01-29T08:54:36;101857.38;;;0.74;82.29
13952;BME280;39535;52.192;9.886;2023-01-29T08:57:02;101855.88;;;0.79;82.33
13952;BME280;39535;52.192;9.886;2023-01-29T08:59:28;101853.38;;;0.61;83.56
13952;BME280;39535;52.192;9.886;2023-01-29T09:01:56;101840.78;;;0.67;83.15
13952;BME280;39535;52.192;9.886;2023-01-29T09:04:22;101833.41;;;0.75;83.09
13952;BME280;39535;52.192;9.886;2023-01-29T09:06:49;101853.31;;;0.59;83.48
13952;BME280;39535;52.192;9.886;2023-01-29T09:09:15;101844.03;;;0.63;83.39
13952;BME280;39535;52.192;9.886;2023-01-29T09:11:42;101838.78;;;0.79;83.86
13952;BME280;39535;52.192;9.886;2023-01-29T09:14:08;101837.25;;;0.65;83.19
13952;BME280;39535;52.192;9.886;2023-01-29T09:16:36;101818.56;;;0.68;83.62
13952;BME280;39535;52.192;9.886;2023-01-29T09:19:04;101819.09;;;0.80;83.15
13952;BME280;39535;52.192;9.886;2023-01-29T09:21:30;101822.34;;;0.56;83.08
13952;BME280;39535;52.192;9.886;2023-01-29T09:23:56;101807.34;;;0.46;84.04
13952;BME280;39535;52.192;9.886;2023-01-29T09:26:22;101787.91;;;0.72;83.74
13952;BME280;39535;52.192;9.886;2023-01-29T09:28:49;101778.03;;;0.82;83.93
13952;BME280;39535;52.192;9.886;2023-01-29T09:31:15;101771.53;;;0.90;84.00
13952;BME280;39535;52.192;9.886;2023-01-29T09:33:41;101762.25;;;0.93;83.29
13952;BME280;39535;52.192;9.886;2023-01-29T09:36:09;101769.97;;;0.93;83.46
13952;BME280;39535;52.192;9.886;2023-01-29T09:38:35;101762.53;;;0.80;84.58
13952;BME280;39535;52.192;9.886;2023-01-29T09:41:08;101721.38;;;0.99;85.62
13952;BME280;39535;52.192;9.886;2023-01-29T09:43:42;101712.72;;;0.97;85.27
13952;BME280;39535;52.192;9.886;2023-01-29T09:46:17;101707.56;;;0.97;84.84
13952;BME280;39535;52.192;9.886;2023-01-29T09:48:45;101718.97;;;0.83;84.38
13952;BME280;39535;52.192;9.886;2023-01-29T09:51:24;101717.91;;;0.99;84.33
13952;BME280;39535;52.192;9.886;2023-01-29T09:53:57;101671.91;;;1.28;87.56
13952;BME280;39535;52.192;9.886;2023-01-29T09:56:28;101641.72;;;1.46;86.25
13952;BME280;39535;52.192;9.886;2023-01-29T09:58:56;101654.72;;;1.49;85.79
13952;BME280;39535;52.192;9.886;2023-01-29T10:01:28;101662.25;;;1.45;87.47
13952;BME280;39535;52.192;9.886;2023-01-29T10:04:12;101584.19;;;1.68;90.39
13952;BME280;39535;52.192;9.886;2023-01-29T10:06:53;101582.53;;;1.69;88.11
13952;BME280;39535;52.192;9.886;2023-01-29T10:09:39;101643.66;;;1.52;85.18
13952;BME280;39535;52.192;9.886;2023-01-29T10:12:21;101669.09;;;1.44;84.49
13952;BME280;39535;52.192;9.886;2023-01-29T10:14:57;101625.72;;;1.53;85.87
13952;BME280;39535;52.192;9.886;2023-01-29T10:17:40;101623.66;;;1.67;87.78
13952;BME280;39535;52.192;9.886;2023-01-29T10:20:24;101657.97;;;1.68;86.01
13952;BME280;39535;52.192;9.886;2023-01-29T10:23:06;101649.81;;;1.79;87.42
13952;BME280;39535;52.192;9.886;2023-01-29T10:25:39;101622.06;;;1.95;88.05
13952;BME280;39535;52.192;9.886;2023-01-29T10:28:15;101637.22;;;1.87;84.77
13952;BME280;39535;52.192;9.886;2023-01-29T10:30:46;101690.75;;;1.96;84.04
13952;BME280;39535;52.192;9.886;2023-01-29T10:33:17;101730.69;;;1.85;83.46
13952;BME280;39535;52.192;9.886;2023-01-29T10:35:47;101726.00;;;1.97;83.93
13952;BME280;39535;52.192;9.886;2023-01-29T10:38:32;101771.69;;;1.80;81.33
13952;BME280;39535;52.192;9.886;2023-01-29T10:41:10;101794.16;;;1.84;82.40
13952;BME280;39535;52.192;9.886;2023-01-29T10:43:50;101804.75;;;1.48;81.65
13952;BME280;39535;52.192;9.886;2023-01-29T10:46:24;101806.94;;;1.60;83.17
13952;BME280;39535;52.192;9.886;2023-01-29T10:49:03;101791.19;;;1.52;82.55
13952;BME280;39535;52.192;9.886;2023-01-29T10:51:45;101778.53;;;1.79;84.60
13952;BME280;39535;52.192;9.886;2023-01-29T10:54:29;101786.56;;;1.65;81.87
13952;BME280;39535;52.192;9.886;2023-01-29T10:57:07;101804.69;;;1.68;81.74
13952;BME280;39535;52.192;9.886;2023-01-29T10:59:47;101810.50;;;1.85;82.85
13952;BME280;39535;52.192;9.886;2023-01-29T11:02:17;101798.16;;;1.98;82.00
13952;BME280;39535;52.192;9.886;2023-01-29T11:04:45;101758.22;;;2.10;83.17
13952;BME280;39535;52.192;9.886;2023-01-29T11:07:13;101808.34;;;1.52;81.11
13952;BME280;39535;52.192;9.886;2023-01-29T11:09:45;101800.47;;;1.70;81.38
13952;BME280;39535;52.192;9.886;2023-01-29T11:12:18;101778.91;;;1.89;81.91
13952;BME280;39535;52.192;9.886;2023-01-29T11:14:48;101793.13;;;1.79;81.69
13952;BME280;39535;52.192;9.886;2023-01-29T11:17:16;101795.44;;;1.73;80.61
13952;BME280;39535;52.192;9.886;2023-01-29T11:19:45;101813.41;;;1.50;80.60
13952;BME280;39535;52.192;9.886;2023-01-29T11:22:13;101806.59;;;1.30;81.21
13952;BME280;39535;52.192;9.886;2023-01-29T11:24:40;101785.25;;;1.53;82.21
13952;BME280;39535;52.192;9.886;2023-01-29T11:27:14;101762.00;;;1.73;81.32
13952;BME280;39535;52.192;9.886;2023-01-29T11:29:46;101778.69;;;1.62;80.83
13952;BME280;39535;52.192;9.886;2023-01-29T11:32:23;101759.72;;;1.81;81.27
13952;BME280;39535;52.192;9.886;2023-01-29T11:34:58;101775.31;;;1.85;80.97
13952;BME280;39535;52.192;9.886;2023-01-29T11:37:32;101771.56;;;1.99;81.52
13952;BME280;39535;52.192;9.886;2023-01-29T11:39:58;101787.56;;;1.91;79.70
13952;BME280;39535;52.192;9.886;2023-01-29T11:42:30;101814.41;;;1.54;79.74
13952;BME280;39535;52.192;9.886;2023-01-29T11:44:57;101792.09;;;1.53;80.46
13952;BME280;39535;52.192;9.886;2023-01-29T11:47:26;101790.47;;;1.55;80.77
13952;BME280;39535;52.192;9.886;2023-01-29T11:49:55;101781.97;;;1.80;82.16
13952;BME280;39535;52.192;9.886;2023-01-29T11:52:23;101755.78;;;1.90;80.55
13952;BME280;39535;52.192;9.886;2023-01-29T11:54:52;101761.97;;;1.95;80.32
13952;BME280;39535;52.192;9.886;2023-01-29T11:57:25;101765.94;;;2.10;79.79
13952;BME280;39535;52.192;9.886;2023-01-29T11:59:55;101764.78;;;2.26;81.18
13952;BME280;39535;52.192;9.886;2023-01-29T12:02:26;101763.94;;;2.25;79.47
13952;BME280;39535;52.192;9.886;2023-01-29T12:04:57;101791.97;;;2.17;77.98
13952;BME280;39535;52.192;9.886;2023-01-29T12:07:25;101797.00;;;2.37;79.06
13952;BME280;39535;52.192;9.886;2023-01-29T12:09:52;101808.38;;;2.44;78.97
13952;BME280;39535;52.192;9.886;2023-01-29T12:12:37;101800.28;;;2.57;78.81
13952;BME280;39535;52.192;9.886;2023-01-29T12:15:16;101810.66;;;2.34;78.86
13952;BME280;39535;52.192;9.886;2023-01-29T12:17:49;101803.50;;;2.51;79.06
13952;BME280;39535;52.192;9.886;2023-01-29T12:20:21;101807.31;;;2.37;78.48
13952;BME280;39535;52.192;9.886;2023-01-29T12:22:52;101801.00;;;2.53;78.68
13952;BME280;39535;52.192;9.886;2023-01-29T12:25:23;101808.22;;;2.63;77.96
13952;BME280;39535;52.192;9.886;2023-01-29T12:27:55;101826.34;;;2.65;77.46
13952;BME280;39535;52.192;9.886;2023-01-29T12:30:28;101793.66;;;2.89;79.65
13952;BME280;39535;52.192;9.886;2023-01-29T12:33:01;101830.78;;;2.69;76.31
13952;BME280;39535;52.192;9.886;2023-01-29T12:35:30;101868.34;;;2.62;75.56
13952;BME280;39535;52.192;9.886;2023-01-29T12:38:01;101874.47;;;2.42;76.22
13952;BME280;39535;52.192;9.886;2023-01-29T12:40:32;101866.44;;;2.56;76.67
13952;BME280;39535;52.192;9.886;2023-01-29T12:43:03;101859.19;;;2.70;76.24
13952;BME280;39535;52.192;9.886;2023-01-29T12:45:31;101881.84;;;2.55;76.14
13952;BME280;39535;52.192;9.886;2023-01-29T12:48:01;101886.19;;;2.56;76.09
13952;BME280;39535;52.192;9.886;2023-01-29T12:50:32;101888.66;;;2.30;76.41
13952;BME280;39535;52.192;9.886;2023-01-29T12:53:05;101869.16;;;2.14;77.32
13952;BME280;39535;52.192;9.886;2023-01-29T12:55:36;101847.31;;;2.27;77.76
13952;BME280;39535;52.192;9.886;2023-01-29T12:58:09;101840.56;;;2.31;77.81
13952;BME280;39535;52.192;9.886;2023-01-29T13:00:42;101846.31;;;2.24;77.55
13952;BME280;39535;52.192;9.886;2023-01-29T13:03:16;101821.97;;;2.39;77.85
13952;BME280;39535;52.192;9.886;2023-01-29T13:05:46;101829.56;;;2.35;78.06
13952;BME280;39535;52.192;9.886;2023-01-29T13:08:17;101804.44;;;2.53;78.68
13952;BME280;39535;52.192;9.886;2023-01-29T13:10:48;101790.09;;;2.60;78.20
13952;BME280;39535;52.192;9.886;2023-01-29T13:13:23;101791.25;;;2.68;77.20
13952;BME280;39535;52.192;9.886;2023-01-29T13:15:54;101801.69;;;2.73;77.44